sensor_id;sensor_type;location;lat;lon;timestamp;temperature;humidity
4964;DHT22;2497;47.410;9.740;2022-08-21T00:01:19;15.40;99.90
4964;DHT22;2497;47.410;9.740;2022-08-21T00:03:47;15.40;99.90
4964;DHT22;2497;47.410;9.740;2022-08-21T00:06:15;15.40;99.90
4964;DHT22;2497;47.410;9.740;2022-08-21T00:08:44;15.40;99.90
4964;DHT22;2497;47.410;9.740;2022-08-21T00:11:12;15.40;99.90
4964;DHT22;2497;47.410;9.740;2022-08-21T00:13:39;15.40;99.90
4964;DHT22;2497;47.410;9.740;2022-08-21T00:16:07;15.40;99.90
4964;DHT22;2497;47.410;9.740;2022-08-21T00:18:35;15.40;99.90
4964;DHT22;2497;47.410;9.740;2022-08-21T00:21:02;15.40;99.90
4964;DHT22;2497;47.410;9.740;2022-08-21T00:23:30;15.40;99.90
4964;DHT22;2497;47.410;9.740;2022-08-21T00:26:01;15.30;99.90
4964;DHT22;2497;47.410;9.740;2022-08-21T00:28:28;15.30;99.90
4964;DHT22;2497;47.410;9.740;2022-08-21T00:30:59;15.40;99.90
4964;DHT22;2497;47.410;9.740;2022-08-21T00:33:26;15.40;99.90
4964;DHT22;2497;47.410;9.740;2022-08-21T00:35:54;15.40;99.90
4964;DHT22;2497;47.410;9.740;2022-08-21T00:38:22;15.40;99.90
4964;DHT22;2497;47.410;9.740;2022-08-21T00:40:53;15.40;99.90
4964;DHT22;2497;47.410;9.740;2022-08-21T00:43:24;15.40;99.90
4964;DHT22;2497;47.410;9.740;2022-08-21T00:45:56;15.40;99.90
4964;DHT22;2497;47.410;9.740;2022-08-21T00:48:24;15.40;99.90
4964;DHT22;2497;47.410;9.740;2022-08-21T00:50:56;15.40;99.90
4964;DHT22;2497;47.410;9.740;2022-08-21T00:53:24;15.50;99.90
4964;DHT22;2497;47.410;9.740;2022-08-21T00:55:52;15.40;99.90
4964;DHT22;2497;47.410;9.740;2022-08-21T00:58:21;15.40;99.90
4964;DHT22;2497;47.410;9.740;2022-08-21T01:00:52;15.40;99.90
4964;DHT22;2497;47.410;9.740;2022-08-21T01:03:23;15.30;99.90
4964;DHT22;2497;47.410;9.740;2022-08-21T01:05:52;15.40;99.90
4964;DHT22;2497;47.410;9.740;2022-08-21T01:08:20;15.40;99.90
4964;DHT22;2497;47.410;9.740;2022-08-21T01:10:50;15.30;99.90
4964;DHT22;2497;47.410;9.740;2022-08-21T01:13:21;15.30;99.90
4964;DHT22;2497;47.410;9.740;2022-08-21T01:15:51;15.30;99.90
4964;DHT22;2497;47.410;9.740;2022-08-21T01:18:20;15.30;99.90
4964;DHT22;2497;47.410;9.740;2022-08-21T01:21:06;15.30;99.90
4964;DHT22;2497;47.410;9.740;2022-08-21T01:23:35;15.40;99.90
4964;DHT22;2497;47.410;9.740;2022-08-21T01:26:04;15.40;99.90
4964;DHT22;2497;47.410;9.740;2022-08-21T01:28:34;15.30;99.90
4964;DHT22;2497;47.410;9.740;2022-08-21T01:31:05;15.30;99.90
4964;DHT22;2497;47.410;9.740;2022-08-21T01:33:33;15.20;99.90
4964;DHT22;2497;47.410;9.740;2022-08-21T01:36:02;15.20;99.90
4964;DHT22;2497;47.410;9.740;2022-08-21T01:38:30;15.20;99.90
4964;DHT22;2497;47.410;9.740;2022-08-21T01:40:58;15.20;99.90
4964;DHT22;2497;47.410;9.740;2022-08-21T01:43:26;15.20;99.90
4964;DHT22;2497;47.410;9.740;2022-08-21T01:45:53;15.20;99.90
4964;DHT22;2497;47.410;9.740;2022-08-21T01:48:20;15.20;99.90
4964;DHT22;2497;47.410;9.740;2022-08-21T01:50:48;15.20;99.90
4964;DHT22;2497;47.410;9.740;2022-08-21T01:53:17;15.10;99.90
4964;DHT22;2497;47.410;9.740;2022-08-21T01:55:45;15.10;99.90
4964;DHT22;2497;47.410;9.740;2022-08-21T01:58:12;15.00;99.90
4964;DHT22;2497;47.410;9.740;2022-08-21T02:00:39;15.10;99.90
4964;DHT22;2497;47.410;9.740;2022-08-21T02:03:07;15.00;99.90
4964;DHT22;2497;47.410;9.740;2022-08-21T02:05:34;15.00;99.90
4964;DHT22;2497;47.410;9.740;2022-08-21T02:08:02;15.00;99.90
4964;DHT22;2497;47.410;9.740;2022-08-21T02:10:32;14.90;99.90
4964;DHT22;2497;47.410;9.740;2022-08-21T02:13:00;14.90;99.90
4964;DHT22;2497;47.410;9.740;2022-08-21T02:15:28;14.90;99.90
4964;DHT22;2497;47.410;9.740;2022-08-21T02:17:58;15.00;99.90
4964;DHT22;2497;47.410;9.740;2022-08-21T02:20:29;15.00;99.90
4964;DHT22;2497;47.410;9.740;2022-08-21T02:22:57;15.00;99.90
4964;DHT22;2497;47.410;9.740;2022-08-21T02:25:26;15.00;99.90
4964;DHT22;2497;47.410;9.740;2022-08-21T02:27:55;15.00;99.90
4964;DHT22;2497;47.410;9.740;2022-08-21T02:30:25;15.00;99.90
4964;DHT22;2497;47.410;9.740;2022-08-21T02:32:54;15.00;99.90
4964;DHT22;2497;47.410;9.740;2022-08-21T02:35:23;15.00;99.90
4964;DHT22;2497;47.410;9.740;2022-08-21T02:37:52;15.00;99.90
4964;DHT22;2497;47.410;9.740;2022-08-21T02:40:22;15.00;99.90
4964;DHT22;2497;47.410;9.740;2022-08-21T02:42:49;14.90;99.90
4964;DHT22;2497;47.410;9.740;2022-08-21T02:45:19;14.90;99.90
4964;DHT22;2497;47.410;9.740;2022-08-21T02:47:48;14.90;99.90
4964;DHT22;2497;47.410;9.740;2022-08-21T02:50:19;14.90;99.90
4964;DHT22;2497;47.410;9.740;2022-08-21T02:52:47;14.90;99.90
4964;DHT22;2497;47.410;9.740;2022-08-21T02:55:14;14.80;99.90
4964;DHT22;2497;47.410;9.740;2022-08-21T02:57:42;14.80;99.90
4964;DHT22;2497;47.410;9.740;2022-08-21T03:00:10;14.80;99.90
4964;DHT22;2497;47.410;9.740;2022-08-21T03:02:40;14.80;99.90
4964;DHT22;2497;47.410;9.740;2022-08-21T03:05:09;14.80;99.90
4964;DHT22;2497;47.410;9.740;2022-08-21T03:07:37;14.80;99.90
4964;DHT22;2497;47.410;9.740;2022-08-21T03:10:05;14.80;99.90
4964;DHT22;2497;47.410;9.740;2022-08-21T03:12:33;14.80;99.90
4964;DHT22;2497;47.410;9.740;2022-08-21T03:15:01;14.80;99.90
4964;DHT22;2497;47.410;9.740;2022-08-21T03:17:28;14.90;99.90
4964;DHT22;2497;47.410;9.740;2022-08-21T03:19:57;14.90;99.90
4964;DHT22;2497;47.410;9.740;2022-08-21T03:22:25;14.90;99.90
4964;DHT22;2497;47.410;9.740;2022-08-21T03:24:53;14.90;99.90
4964;DHT22;2497;47.410;9.740;2022-08-21T03:27:20;14.90;99.90
4964;DHT22;2497;47.410;9.740;2022-08-21T03:29:47;14.80;99.90
4964;DHT22;2497;47.410;9.740;2022-08-21T03:32:15;14.90;99.90
4964;DHT22;2497;47.410;9.740;2022-08-21T03:34:42;14.80;99.90
4964;DHT22;2497;47.410;9.740;2022-08-21T03:37:12;14.90;99.90
4964;DHT22;2497;47.410;9.740;2022-08-21T03:39:40;14.90;99.90
4964;DHT22;2497;47.410;9.740;2022-08-21T03:42:08;14.90;99.90
4964;DHT22;2497;47.410;9.740;2022-08-21T03:44:36;14.90;99.90
4964;DHT22;2497;47.410;9.740;2022-08-21T03:47:05;14.90;99.90
4964;DHT22;2497;47.410;9.740;2022-08-21T03:49:33;14.90;99.90
4964;DHT22;2497;47.410;9.740;2022-08-21T03:52:00;14.70;99.90
4964;DHT22;2497;47.410;9.740;2022-08-21T03:54:29;14.60;99.90
4964;DHT22;2497;47.410;9.740;2022-08-21T03:56:57;14.60;99.90
4964;DHT22;2497;47.410;9.740;2022-08-21T03:59:24;14.40;99.90
4964;DHT22;2497;47.410;9.740;2022-08-21T04:01:53;14.30;99.90
4964;DHT22;2497;47.410;9.740;2022-08-21T04:04:21;14.30;99.90
4964;DHT22;2497;47.410;9.740;2022-08-21T04:06:49;14.20;99.90
4964;DHT22;2497;47.410;9.740;2022-08-21T04:09:19;14.20;99.90
4964;DHT22;2497;47.410;9.740;2022-08-21T04:11:48;14.20;99.90
4964;DHT22;2497;47.410;9.740;2022-08-21T04:14:16;14.30;99.90
4964;DHT22;2497;47.410;9.740;2022-08-21T04:16:44;14.40;99.90
4964;DHT22;2497;47.410;9.740;2022-08-21T04:19:13;14.40;99.90
4964;DHT22;2497;47.410;9.740;2022-08-21T04:21:40;14.50;99.90
4964;DHT22;2497;47.410;9.740;2022-08-21T04:24:09;14.40;99.90
4964;DHT22;2497;47.410;9.740;2022-08-21T04:26:38;14.50;99.90
4964;DHT22;2497;47.410;9.740;2022-08-21T04:29:08;14.40;99.90
4964;DHT22;2497;47.410;9.740;2022-08-21T04:31:35;14.40;99.90
4964;DHT22;2497;47.410;9.740;2022-08-21T04:34:03;14.40;99.90
4964;DHT22;2497;47.410;9.740;2022-08-21T04:36:30;14.40;99.90
4964;DHT22;2497;47.410;9.740;2022-08-21T04:38:58;14.50;99.90
4964;DHT22;2497;47.410;9.740;2022-08-21T04:41:25;14.50;99.90
4964;DHT22;2497;47.410;9.740;2022-08-21T04:43:53;14.40;99.90
4964;DHT22;2497;47.410;9.740;2022-08-21T04:46:23;14.50;99.90
4964;DHT22;2497;47.410;9.740;2022-08-21T04:48:51;14.50;99.90
4964;DHT22;2497;47.410;9.740;2022-08-21T04:51:24;14.50;99.90
4964;DHT22;2497;47.410;9.740;2022-08-21T04:53:55;14.40;99.90
4964;DHT22;2497;47.410;9.740;2022-08-21T04:56:28;14.30;99.90
4964;DHT22;2497;47.410;9.740;2022-08-21T04:58:59;14.20;99.90
4964;DHT22;2497;47.410;9.740;2022-08-21T05:01:32;14.20;99.90
4964;DHT22;2497;47.410;9.740;2022-08-21T05:04:02;14.30;99.90
4964;DHT22;2497;47.410;9.740;2022-08-21T05:06:33;14.20;99.90
4964;DHT22;2497;47.410;9.740;2022-08-21T05:09:03;14.30;99.90
4964;DHT22;2497;47.410;9.740;2022-08-21T05:11:32;14.40;99.90
4964;DHT22;2497;47.410;9.740;2022-08-21T05:14:00;14.40;99.90
4964;DHT22;2497;47.410;9.740;2022-08-21T05:16:30;14.40;99.90
4964;DHT22;2497;47.410;9.740;2022-08-21T05:18:58;14.40;99.90
4964;DHT22;2497;47.410;9.740;2022-08-21T05:21:26;14.40;99.90
4964;DHT22;2497;47.410;9.740;2022-08-21T05:23:56;14.50;99.90
4964;DHT22;2497;47.410;9.740;2022-08-21T05:26:24;14.50;99.90
4964;DHT22;2497;47.410;9.740;2022-08-21T05:28:51;14.50;99.90
4964;DHT22;2497;47.410;9.740;2022-08-21T05:31:19;14.60;99.90
4964;DHT22;2497;47.410;9.740;2022-08-21T05:33:49;14.50;99.90
4964;DHT22;2497;47.410;9.740;2022-08-21T05:36:17;14.60;99.90
4964;DHT22;2497;47.410;9.740;2022-08-21T05:38:45;14.50;99.90
4964;DHT22;2497;47.410;9.740;2022-08-21T05:41:12;14.50;99.90
4964;DHT22;2497;47.410;9.740;2022-08-21T05:43:40;14.50;99.90
4964;DHT22;2497;47.410;9.740;2022-08-21T05:46:08;14.60;99.90
4964;DHT22;2497;47.410;9.740;2022-08-21T05:48:36;14.60;99.90
4964;DHT22;2497;47.410;9.740;2022-08-21T05:51:07;14.60;99.90
4964;DHT22;2497;47.410;9.740;2022-08-21T05:53:35;14.70;99.90
4964;DHT22;2497;47.410;9.740;2022-08-21T05:56:03;14.80;99.90
4964;DHT22;2497;47.410;9.740;2022-08-21T05:58:33;14.90;99.90
4964;DHT22;2497;47.410;9.740;2022-08-21T06:01:01;15.00;99.90
4964;DHT22;2497;47.410;9.740;2022-08-21T06:03:32;15.10;99.90
4964;DHT22;2497;47.410;9.740;2022-08-21T06:06:01;15.30;99.90
4964;DHT22;2497;47.410;9.740;2022-08-21T06:08:30;15.50;99.90
4964;DHT22;2497;47.410;9.740;2022-08-21T06:11:00;15.70;99.90
4964;DHT22;2497;47.410;9.740;2022-08-21T06:13:29;15.80;99.90
4964;DHT22;2497;47.410;9.740;2022-08-21T06:16:05;15.90;99.90
4964;DHT22;2497;47.410;9.740;2022-08-21T06:18:33;16.00;99.90
4964;DHT22;2497;47.410;9.740;2022-08-21T06:21:00;16.00;99.90
4964;DHT22;2497;47.410;9.740;2022-08-21T06:23:27;16.20;99.90
4964;DHT22;2497;47.410;9.740;2022-08-21T06:25:56;16.20;99.90
4964;DHT22;2497;47.410;9.740;2022-08-21T06:28:24;16.20;99.90
4964;DHT22;2497;47.410;9.740;2022-08-21T06:30:52;16.30;99.90
4964;DHT22;2497;47.410;9.740;2022-08-21T06:33:19;16.30;99.90
4964;DHT22;2497;47.410;9.740;2022-08-21T06:35:47;16.40;99.90
4964;DHT22;2497;47.410;9.740;2022-08-21T06:38:14;16.40;99.90
4964;DHT22;2497;47.410;9.740;2022-08-21T06:40:42;16.50;99.90
4964;DHT22;2497;47.410;9.740;2022-08-21T06:43:13;16.60;99.90
4964;DHT22;2497;47.410;9.740;2022-08-21T06:45:40;16.80;99.90
4964;DHT22;2497;47.410;9.740;2022-08-21T06:48:08;16.90;99.90
4964;DHT22;2497;47.410;9.740;2022-08-21T06:50:36;17.20;99.90
4964;DHT22;2497;47.410;9.740;2022-08-21T06:53:05;17.30;99.90
4964;DHT22;2497;47.410;9.740;2022-08-21T06:55:34;17.50;99.90
4964;DHT22;2497;47.410;9.740;2022-08-21T06:58:02;17.40;99.90
4964;DHT22;2497;47.410;9.740;2022-08-21T07:00:32;17.40;99.90
4964;DHT22;2497;47.410;9.740;2022-08-21T07:03:00;17.60;99.90
4964;DHT22;2497;47.410;9.740;2022-08-21T07:05:29;17.70;99.90
4964;DHT22;2497;47.410;9.740;2022-08-21T07:07:57;17.80;99.90
4964;DHT22;2497;47.410;9.740;2022-08-21T07:10:25;18.30;99.90
4964;DHT22;2497;47.410;9.740;2022-08-21T07:12:53;18.20;99.90
4964;DHT22;2497;47.410;9.740;2022-08-21T07:15:20;18.50;99.90
4964;DHT22;2497;47.410;9.740;2022-08-21T07:17:50;18.70;99.90
4964;DHT22;2497;47.410;9.740;2022-08-21T07:20:18;18.50;99.90
4964;DHT22;2497;47.410;9.740;2022-08-21T07:22:45;18.70;99.90
4964;DHT22;2497;47.410;9.740;2022-08-21T07:25:13;18.90;99.90
4964;DHT22;2497;47.410;9.740;2022-08-21T07:27:40;19.00;99.90
4964;DHT22;2497;47.410;9.740;2022-08-21T07:30:08;20.40;99.90
4964;DHT22;2497;47.410;9.740;2022-08-21T07:32:36;21.30;99.90
4964;DHT22;2497;47.410;9.740;2022-08-21T07:35:05;22.00;99.90
4964;DHT22;2497;47.410;9.740;2022-08-21T07:37:33;22.20;99.90
4964;DHT22;2497;47.410;9.740;2022-08-21T07:40:00;22.80;99.90
4964;DHT22;2497;47.410;9.740;2022-08-21T07:42:27;22.50;99.90
4964;DHT22;2497;47.410;9.740;2022-08-21T07:44:55;21.70;99.90
4964;DHT22;2497;47.410;9.740;2022-08-21T07:47:23;21.40;99.90
4964;DHT22;2497;47.410;9.740;2022-08-21T07:49:50;21.10;99.90
4964;DHT22;2497;47.410;9.740;2022-08-21T07:52:19;21.10;99.90
4964;DHT22;2497;47.410;9.740;2022-08-21T07:54:46;21.10;99.90
4964;DHT22;2497;47.410;9.740;2022-08-21T07:57:17;21.70;99.90
4964;DHT22;2497;47.410;9.740;2022-08-21T07:59:44;23.20;99.90
4964;DHT22;2497;47.410;9.740;2022-08-21T08:02:22;22.20;99.90
4964;DHT22;2497;47.410;9.740;2022-08-21T08:04:49;21.80;99.90
4964;DHT22;2497;47.410;9.740;2022-08-21T08:07:18;22.00;99.90
4964;DHT22;2497;47.410;9.740;2022-08-21T08:09:46;21.80;99.90
4964;DHT22;2497;47.410;9.740;2022-08-21T08:12:13;21.40;99.90
4964;DHT22;2497;47.410;9.740;2022-08-21T08:14:41;21.40;99.90
4964;DHT22;2497;47.410;9.740;2022-08-21T08:17:08;21.40;99.90
4964;DHT22;2497;47.410;9.740;2022-08-21T08:19:35;21.50;99.90
4964;DHT22;2497;47.410;9.740;2022-08-21T08:22:13;22.40;99.90
4964;DHT22;2497;47.410;9.740;2022-08-21T08:24:42;23.00;99.90
4964;DHT22;2497;47.410;9.740;2022-08-21T08:27:10;23.30;99.90
4964;DHT22;2497;47.410;9.740;2022-08-21T08:29:37;23.20;99.90
4964;DHT22;2497;47.410;9.740;2022-08-21T08:32:05;23.80;99.90
4964;DHT22;2497;47.410;9.740;2022-08-21T08:34:33;23.90;99.90
4964;DHT22;2497;47.410;9.740;2022-08-21T08:37:01;24.80;99.90
4964;DHT22;2497;47.410;9.740;2022-08-21T08:39:29;24.50;99.90
4964;DHT22;2497;47.410;9.740;2022-08-21T08:42:03;23.60;99.90
4964;DHT22;2497;47.410;9.740;2022-08-21T08:44:32;23.60;99.90
4964;DHT22;2497;47.410;9.740;2022-08-21T08:47:01;23.70;99.90
4964;DHT22;2497;47.410;9.740;2022-08-21T08:49:34;23.30;99.90
4964;DHT22;2497;47.410;9.740;2022-08-21T08:52:07;23.80;99.90
4964;DHT22;2497;47.410;9.740;2022-08-21T08:54:42;23.70;99.90
4964;DHT22;2497;47.410;9.740;2022-08-21T08:57:16;23.40;99.90
4964;DHT22;2497;47.410;9.740;2022-08-21T08:59:46;23.50;99.90
4964;DHT22;2497;47.410;9.740;2022-08-21T09:02:16;23.60;99.90
4964;DHT22;2497;47.410;9.740;2022-08-21T09:04:46;24.50;99.90
4964;DHT22;2497;47.410;9.740;2022-08-21T09:07:20;25.40;99.90
4964;DHT22;2497;47.410;9.740;2022-08-21T09:10:00;25.80;99.90
4964;DHT22;2497;47.410;9.740;2022-08-21T09:12:39;25.70;99.90
4964;DHT22;2497;47.410;9.740;2022-08-21T09:15:18;25.60;99.90
4964;DHT22;2497;47.410;9.740;2022-08-21T09:18:04;24.90;99.90
4964;DHT22;2497;47.410;9.740;2022-08-21T09:20:37;26.10;99.90
4964;DHT22;2497;47.410;9.740;2022-08-21T09:23:21;25.90;99.90
4964;DHT22;2497;47.410;9.740;2022-08-21T09:25:59;25.80;99.90
4964;DHT22;2497;47.410;9.740;2022-08-21T09:28:33;26.40;99.90
4964;DHT22;2497;47.410;9.740;2022-08-21T09:31:02;26.50;99.90
4964;DHT22;2497;47.410;9.740;2022-08-21T09:33:30;26.30;99.90
4964;DHT22;2497;47.410;9.740;2022-08-21T09:35:57;25.70;99.90
4964;DHT22;2497;47.410;9.740;2022-08-21T09:38:27;26.10;99.90
4964;DHT22;2497;47.410;9.740;2022-08-21T09:41:00;25.70;99.90
4964;DHT22;2497;47.410;9.740;2022-08-21T09:43:28;25.80;99.90
4964;DHT22;2497;47.410;9.740;2022-08-21T09:46:10;25.90;99.90
4964;DHT22;2497;47.410;9.740;2022-08-21T09:48:44;25.70;99.90
4964;DHT22;2497;47.410;9.740;2022-08-21T09:51:14;26.00;99.90
4964;DHT22;2497;47.410;9.740;2022-08-21T09:53:45;27.00;99.90
4964;DHT22;2497;47.410;9.740;2022-08-21T09:56:19;26.30;99.90
4964;DHT22;2497;47.410;9.740;2022-08-21T09:59:14;26.20;99.90
4964;DHT22;2497;47.410;9.740;2022-08-21T10:01:46;26.00;99.90
4964;DHT22;2497;47.410;9.740;2022-08-21T10:04:13;25.80;99.90
4964;DHT22;2497;47.410;9.740;2022-08-21T10:06:41;26.10;99.90
4964;DHT22;2497;47.410;9.740;2022-08-21T10:09:11;26.20;99.90
4964;DHT22;2497;47.410;9.740;2022-08-21T10:11:38;26.00;99.90
4964;DHT22;2497;47.410;9.740;2022-08-21T10:14:14;25.50;99.90
4964;DHT22;2497;47.410;9.740;2022-08-21T10:16:56;25.30;99.90
4964;DHT22;2497;47.410;9.740;2022-08-21T10:19:32;25.80;99.90
4964;DHT22;2497;47.410;9.740;2022-08-21T10:22:12;26.50;99.90
4964;DHT22;2497;47.410;9.740;2022-08-21T10:24:50;27.10;99.90
4964;DHT22;2497;47.410;9.740;2022-08-21T10:27:25;26.70;99.90
4964;DHT22;2497;47.410;9.740;2022-08-21T10:29:57;26.30;99.90
4964;DHT22;2497;47.410;9.740;2022-08-21T10:32:46;26.30;99.90
4964;DHT22;2497;47.410;9.740;2022-08-21T10:35:22;26.60;99.90
4964;DHT22;2497;47.410;9.740;2022-08-21T10:38:10;26.50;99.90
4964;DHT22;2497;47.410;9.740;2022-08-21T10:40:55;26.60;99.90
4964;DHT22;2497;47.410;9.740;2022-08-21T10:43:32;26.50;99.90
4964;DHT22;2497;47.410;9.740;2022-08-21T10:46:10;26.40;99.90
4964;DHT22;2497;47.410;9.740;2022-08-21T10:48:46;26.10;99.90
4964;DHT22;2497;47.410;9.740;2022-08-21T10:51:19;25.80;99.90
4964;DHT22;2497;47.410;9.740;2022-08-21T10:53:55;26.00;99.90
4964;DHT22;2497;47.410;9.740;2022-08-21T10:56:26;26.30;99.90
4964;DHT22;2497;47.410;9.740;2022-08-21T10:59:07;26.50;99.90
4964;DHT22;2497;47.410;9.740;2022-08-21T11:01:44;25.60;99.90
4964;DHT22;2497;47.410;9.740;2022-08-21T11:04:20;25.50;99.90
4964;DHT22;2497;47.410;9.740;2022-08-21T11:06:52;25.90;99.90
4964;DHT22;2497;47.410;9.740;2022-08-21T11:09:24;26.00;99.90
4964;DHT22;2497;47.410;9.740;2022-08-21T11:11:57;26.50;99.90
4964;DHT22;2497;47.410;9.740;2022-08-21T11:14:36;26.60;99.90
4964;DHT22;2497;47.410;9.740;2022-08-21T11:17:08;26.60;99.90
4964;DHT22;2497;47.410;9.740;2022-08-21T11:19:42;26.30;99.90
4964;DHT22;2497;47.410;9.740;2022-08-21T11:22:15;26.40;99.90
4964;DHT22;2497;47.410;9.740;2022-08-21T11:24:50;26.20;99.90
4964;DHT22;2497;47.410;9.740;2022-08-21T11:27:24;25.80;99.90
4964;DHT22;2497;47.410;9.740;2022-08-21T11:29:55;25.80;99.90
4964;DHT22;2497;47.410;9.740;2022-08-21T11:32:45;26.10;99.90
4964;DHT22;2497;47.410;9.740;2022-08-21T11:35:23;26.10;99.90
4964;DHT22;2497;47.410;9.740;2022-08-21T11:38:01;26.10;99.90
4964;DHT22;2497;47.410;9.740;2022-08-21T11:40:42;26.30;99.90
4964;DHT22;2497;47.410;9.740;2022-08-21T11:43:20;26.40;99.90
4964;DHT22;2497;47.410;9.740;2022-08-21T11:45:54;26.60;99.90
4964;DHT22;2497;47.410;9.740;2022-08-21T11:48:35;26.60;99.90
4964;DHT22;2497;47.410;9.740;2022-08-21T11:51:10;26.70;99.90
4964;DHT22;2497;47.410;9.740;2022-08-21T11:53:41;27.10;99.90
4964;DHT22;2497;47.410;9.740;2022-08-21T11:56:22;27.30;99.90
4964;DHT22;2497;47.410;9.740;2022-08-21T11:58:54;27.40;99.90
4964;DHT22;2497;47.410;9.740;2022-08-21T12:01:25;27.50;99.90
4964;DHT22;2497;47.410;9.740;2022-08-21T12:03:58;27.60;99.90
4964;DHT22;2497;47.410;9.740;2022-08-21T12:06:32;26.50;99.90
4964;DHT22;2497;47.410;9.740;2022-08-21T12:09:04;26.20;99.90
4964;DHT22;2497;47.410;9.740;2022-08-21T12:11:31;26.40;99.90
4964;DHT22;2497;47.410;9.740;2022-08-21T12:14:12;26.50;99.90
4964;DHT22;2497;47.410;9.740;2022-08-21T12:16:41;26.60;99.90
4964;DHT22;2497;47.410;9.740;2022-08-21T12:19:11;26.80;99.90
4964;DHT22;2497;47.410;9.740;2022-08-21T12:21:51;26.80;99.90
4964;DHT22;2497;47.410;9.740;2022-08-21T12:24:33;26.90;99.90
4964;DHT22;2497;47.410;9.740;2022-08-21T12:27:19;27.10;99.90
4964;DHT22;2497;47.410;9.740;2022-08-21T12:29:52;27.00;99.90
4964;DHT22;2497;47.410;9.740;2022-08-21T12:32:26;26.80;99.90
4964;DHT22;2497;47.410;9.740;2022-08-21T12:34:58;26.90;99.90
4964;DHT22;2497;47.410;9.740;2022-08-21T12:37:38;26.90;99.90
4964;DHT22;2497;47.410;9.740;2022-08-21T12:40:13;26.80;99.90
4964;DHT22;2497;47.410;9.740;2022-08-21T12:42:46;27.00;99.90
4964;DHT22;2497;47.410;9.740;2022-08-21T12:45:19;27.10;99.90
4964;DHT22;2497;47.410;9.740;2022-08-21T12:47:52;27.00;99.90
4964;DHT22;2497;47.410;9.740;2022-08-21T12:50:29;27.10;99.90
4964;DHT22;2497;47.410;9.740;2022-08-21T12:53:06;27.30;99.90
4964;DHT22;2497;47.410;9.740;2022-08-21T12:55:35;27.00;99.90
4964;DHT22;2497;47.410;9.740;2022-08-21T12:58:15;27.00;99.90
4964;DHT22;2497;47.410;9.740;2022-08-21T13:00:49;27.30;99.90
4964;DHT22;2497;47.410;9.740;2022-08-21T13:03:17;27.60;99.90
4964;DHT22;2497;47.410;9.740;2022-08-21T13:05:44;27.30;99.90
4964;DHT22;2497;47.410;9.740;2022-08-21T13:08:20;27.50;99.90
4964;DHT22;2497;47.410;9.740;2022-08-21T13:10:49;27.40;99.90
4964;DHT22;2497;47.410;9.740;2022-08-21T13:13:26;27.30;99.90
4964;DHT22;2497;47.410;9.740;2022-08-21T13:15:58;27.10;99.90
4964;DHT22;2497;47.410;9.740;2022-08-21T13:18:28;27.10;99.90
4964;DHT22;2497;47.410;9.740;2022-08-21T13:21:05;27.30;99.90
4964;DHT22;2497;47.410;9.740;2022-08-21T13:23:35;27.30;99.90
4964;DHT22;2497;47.410;9.740;2022-08-21T13:26:12;27.40;99.90
4964;DHT22;2497;47.410;9.740;2022-08-21T13:28:40;27.40;99.90
4964;DHT22;2497;47.410;9.740;2022-08-21T13:31:10;27.30;99.90
4964;DHT22;2497;47.410;9.740;2022-08-21T13:33:39;27.30;99.90
4964;DHT22;2497;47.410;9.740;2022-08-21T13:36:11;27.40;99.90
4964;DHT22;2497;47.410;9.740;2022-08-21T13:38:42;27.60;99.90
4964;DHT22;2497;47.410;9.740;2022-08-21T13:41:20;27.30;99.90
4964;DHT22;2497;47.410;9.740;2022-08-21T13:43:51;27.30;99.90
4964;DHT22;2497;47.410;9.740;2022-08-21T13:46:24;27.10;99.90
4964;DHT22;2497;47.410;9.740;2022-08-21T13:48:54;27.10;99.90
4964;DHT22;2497;47.410;9.740;2022-08-21T13:51:22;27.40;99.90
4964;DHT22;2497;47.410;9.740;2022-08-21T13:53:52;27.50;99.90
4964;DHT22;2497;47.410;9.740;2022-08-21T13:56:22;27.70;99.90
4964;DHT22;2497;47.410;9.740;2022-08-21T13:58:50;27.60;99.90
4964;DHT22;2497;47.410;9.740;2022-08-21T14:01:19;27.60;99.90
4964;DHT22;2497;47.410;9.740;2022-08-21T14:03:49;27.50;99.90
4964;DHT22;2497;47.410;9.740;2022-08-21T14:06:19;27.70;99.90
4964;DHT22;2497;47.410;9.740;2022-08-21T14:08:51;27.80;99.90
4964;DHT22;2497;47.410;9.740;2022-08-21T14:11:21;27.80;99.90
4964;DHT22;2497;47.410;9.740;2022-08-21T14:13:55;27.80;99.90
4964;DHT22;2497;47.410;9.740;2022-08-21T14:16:26;27.90;99.90
4964;DHT22;2497;47.410;9.740;2022-08-21T14:19:08;28.00;99.90
4964;DHT22;2497;47.410;9.740;2022-08-21T14:21:38;28.10;99.90
4964;DHT22;2497;47.410;9.740;2022-08-21T14:24:10;28.10;99.90
4964;DHT22;2497;47.410;9.740;2022-08-21T14:26:46;28.00;99.90
4964;DHT22;2497;47.410;9.740;2022-08-21T14:29:15;28.10;99.90
4964;DHT22;2497;47.410;9.740;2022-08-21T14:31:43;28.00;99.90
4964;DHT22;2497;47.410;9.740;2022-08-21T14:34:12;27.90;99.90
4964;DHT22;2497;47.410;9.740;2022-08-21T14:36:42;27.70;99.90
4964;DHT22;2497;47.410;9.740;2022-08-21T14:39:11;27.60;99.90
4964;DHT22;2497;47.410;9.740;2022-08-21T14:41:39;27.50;99.90
4964;DHT22;2497;47.410;9.740;2022-08-21T14:44:09;27.40;99.90
4964;DHT22;2497;47.410;9.740;2022-08-21T14:46:37;27.30;99.90
4964;DHT22;2497;47.410;9.740;2022-08-21T14:49:04;27.40;99.90
4964;DHT22;2497;47.410;9.740;2022-08-21T14:51:32;27.40;99.90
4964;DHT22;2497;47.410;9.740;2022-08-21T14:53:59;27.40;99.90
4964;DHT22;2497;47.410;9.740;2022-08-21T14:56:29;27.50;99.90
4964;DHT22;2497;47.410;9.740;2022-08-21T14:59:00;27.50;99.90
4964;DHT22;2497;47.410;9.740;2022-08-21T15:01:28;27.60;99.90
4964;DHT22;2497;47.410;9.740;2022-08-21T15:03:56;27.80;99.90
4964;DHT22;2497;47.410;9.740;2022-08-21T15:06:23;27.90;99.90
4964;DHT22;2497;47.410;9.740;2022-08-21T15:08:51;27.90;99.90
4964;DHT22;2497;47.410;9.740;2022-08-21T15:11:20;28.00;99.90
4964;DHT22;2497;47.410;9.740;2022-08-21T15:13:54;28.10;99.90
4964;DHT22;2497;47.410;9.740;2022-08-21T15:16:23;28.30;99.90
4964;DHT22;2497;47.410;9.740;2022-08-21T15:18:50;28.50;99.90
4964;DHT22;2497;47.410;9.740;2022-08-21T15:21:18;28.30;99.90
4964;DHT22;2497;47.410;9.740;2022-08-21T15:23:46;28.20;99.90
4964;DHT22;2497;47.410;9.740;2022-08-21T15:26:13;28.10;99.90
4964;DHT22;2497;47.410;9.740;2022-08-21T15:28:41;27.80;99.90
4964;DHT22;2497;47.410;9.740;2022-08-21T15:31:10;27.70;99.90
4964;DHT22;2497;47.410;9.740;2022-08-21T15:33:37;27.50;99.90
4964;DHT22;2497;47.410;9.740;2022-08-21T15:36:05;27.10;99.90
4964;DHT22;2497;47.410;9.740;2022-08-21T15:38:33;26.70;99.90
4964;DHT22;2497;47.410;9.740;2022-08-21T15:41:02;26.40;99.90
4964;DHT22;2497;47.410;9.740;2022-08-21T15:43:33;26.20;99.90
4964;DHT22;2497;47.410;9.740;2022-08-21T15:46:02;26.00;99.90
4964;DHT22;2497;47.410;9.740;2022-08-21T15:48:32;25.60;99.90
4964;DHT22;2497;47.410;9.740;2022-08-21T15:50:59;25.50;99.90
4964;DHT22;2497;47.410;9.740;2022-08-21T15:53:27;25.50;99.90
4964;DHT22;2497;47.410;9.740;2022-08-21T15:55:57;25.40;99.90
4964;DHT22;2497;47.410;9.740;2022-08-21T15:58:27;25.40;99.90
4964;DHT22;2497;47.410;9.740;2022-08-21T16:00:54;25.20;99.90
4964;DHT22;2497;47.410;9.740;2022-08-21T16:03:21;25.10;99.90
4964;DHT22;2497;47.410;9.740;2022-08-21T16:05:53;25.10;99.90
4964;DHT22;2497;47.410;9.740;2022-08-21T16:08:22;25.00;99.90
4964;DHT22;2497;47.410;9.740;2022-08-21T16:10:51;25.00;99.90
4964;DHT22;2497;47.410;9.740;2022-08-21T16:13:23;25.10;99.90
4964;DHT22;2497;47.410;9.740;2022-08-21T16:15:52;25.00;99.90
4964;DHT22;2497;47.410;9.740;2022-08-21T16:18:21;24.80;99.90
4964;DHT22;2497;47.410;9.740;2022-08-21T16:20:49;24.80;99.90
4964;DHT22;2497;47.410;9.740;2022-08-21T16:23:19;24.90;99.90